sensor_id;sensor_type;location;lat;lon;timestamp;pressure;altitude;pressure_sealevel;temperature;humidity
70304;BME280;57712;48.752;11.348;2023-01-19T00:00:53;96322.84;;;0.31;100.00
70304;BME280;57712;48.752;11.348;2023-01-19T00:03:20;96327.13;;;0.32;100.00
70304;BME280;57712;48.752;11.348;2023-01-19T00:05:47;96329.41;;;0.37;100.00
70304;BME280;57712;48.752;11.348;2023-01-19T00:08:13;96332.50;;;0.39;100.00
70304;BME280;57712;48.752;11.348;2023-01-19T00:10:45;96341.72;;;0.38;100.00
70304;BME280;57712;48.752;11.348;2023-01-19T00:13:13;96346.34;;;0.41;100.00
70304;BME280;57712;48.752;11.348;2023-01-19T00:15:40;96350.59;;;0.35;100.00
70304;BME280;57712;48.752;11.348;2023-01-19T00:18:06;96357.47;;;0.25;100.00
70304;BME280;57712;48.752;11.348;2023-01-19T00:20:36;96360.16;;;0.29;100.00
70304;BME280;57712;48.752;11.348;2023-01-19T00:23:02;96355.56;;;0.29;100.00
70304;BME280;57712;48.752;11.348;2023-01-19T00:25:30;96364.41;;;0.30;100.00
70304;BME280;57712;48.752;11.348;2023-01-19T00:27:59;96365.53;;;0.22;100.00
70304;BME280;57712;48.752;11.348;2023-01-19T00:30:27;96371.72;;;0.26;100.00
70304;BME280;57712;48.752;11.348;2023-01-19T00:32:54;96375.19;;;0.30;100.00
70304;BME280;57712;48.752;11.348;2023-01-19T00:35:20;96377.50;;;0.35;100.00
70304;BME280;57712;48.752;11.348;2023-01-19T00:37:48;96379.03;;;0.29;100.00
70304;BME280;57712;48.752;11.348;2023-01-19T00:40:14;96378.25;;;0.25;100.00
70304;BME280;57712;48.752;11.348;2023-01-19T00:42:41;96378.19;;;0.11;100.00
70304;BME280;57712;48.752;11.348;2023-01-19T00:45:13;96383.97;;;0.13;100.00
70304;BME280;57712;48.752;11.348;2023-01-19T00:47:41;96388.16;;;0.07;100.00
70304;BME280;57712;48.752;11.348;2023-01-19T00:50:09;96386.56;;;-0.02;100.00
70304;BME280;57712;48.752;11.348;2023-01-19T00:52:40;96387.41;;;0.10;100.00
70304;BME280;57712;48.752;11.348;2023-01-19T00:55:08;96394.69;;;0.02;100.00
70304;BME280;57712;48.752;11.348;2023-01-19T00:57:36;96394.31;;;0.07;100.00
70304;BME280;57712;48.752;11.348;2023-01-19T01:00:04;96395.47;;;0.10;100.00
70304;BME280;57712;48.752;11.348;2023-01-19T01:02:31;96398.16;;;0.06;100.00
70304;BME280;57712;48.752;11.348;2023-01-19T01:04:59;96394.31;;;0.04;100.00
70304;BME280;57712;48.752;11.348;2023-01-19T01:07:29;96407.38;;;0.05;100.00
70304;BME280;57712;48.752;11.348;2023-01-19T01:09:55;96415.84;;;0.07;100.00
70304;BME280;57712;48.752;11.348;2023-01-19T01:12:23;96425.88;;;0.14;100.00
70304;BME280;57712;48.752;11.348;2023-01-19T01:14:49;96421.31;;;0.25;100.00
70304;BME280;57712;48.752;11.348;2023-01-19T01:17:16;96429.72;;;0.13;100.00
70304;BME280;57712;48.752;11.348;2023-01-19T01:19:42;96432.09;;;0.25;100.00
70304;BME280;57712;48.752;11.348;2023-01-19T01:22:09;96433.25;;;0.24;100.00
70304;BME280;57712;48.752;11.348;2023-01-19T01:24:36;96431.34;;;0.24;100.00
70304;BME280;57712;48.752;11.348;2023-01-19T01:27:02;96440.91;;;0.15;100.00
70304;BME280;57712;48.752;11.348;2023-01-19T01:29:29;96431.72;;;0.23;100.00
70304;BME280;57712;48.752;11.348;2023-01-19T01:31:55;96440.91;;;0.15;100.00
70304;BME280;57712;48.752;11.348;2023-01-19T01:34:22;96433.16;;;0.10;100.00
70304;BME280;57712;48.752;11.348;2023-01-19T01:36:48;96449.72;;;0.12;100.00
70304;BME280;57712;48.752;11.348;2023-01-19T01:39:15;96450.50;;;0.12;100.00
70304;BME280;57712;48.752;11.348;2023-01-19T01:41:41;96454.34;;;0.15;100.00
70304;BME280;57712;48.752;11.348;2023-01-19T01:47:37;96459.34;;;0.13;100.00
70304;BME280;57712;48.752;11.348;2023-01-19T01:50:13;96453.56;;;0.11;100.00
70304;BME280;57712;48.752;11.348;2023-01-19T01:52:48;96455.13;;;0.15;100.00
70304;BME280;57712;48.752;11.348;2023-01-19T01:55:35;96455.13;;;0.12;100.00
70304;BME280;57712;48.752;11.348;2023-01-19T01:58:04;96460.44;;;0.05;100.00
70304;BME280;57712;48.752;11.348;2023-01-19T02:00:33;96460.44;;;0.05;100.00
70304;BME280;57712;48.752;11.348;2023-01-19T02:03:21;96458.97;;;0.11;100.00
70304;BME280;57712;48.752;11.348;2023-01-19T02:05:48;96453.59;;;0.18;100.00
70304;BME280;57712;48.752;11.348;2023-01-19T02:08:19;96462.47;;;0.22;100.00
70304;BME280;57712;48.752;11.348;2023-01-19T02:11:09;96458.09;;;-0.01;100.00
70304;BME280;57712;48.752;11.348;2023-01-19T02:13:55;96458.19;;;0.14;100.00
70304;BME280;57712;48.752;11.348;2023-01-19T02:16:21;96460.88;;;0.14;100.00
70304;BME280;57712;48.752;11.348;2023-01-19T02:18:48;96457.31;;;-0.05;100.00
70304;BME280;57712;48.752;11.348;2023-01-19T02:21:21;96464.22;;;-0.07;100.00
70304;BME280;57712;48.752;11.348;2023-01-19T02:26:38;96469.69;;;0.07;100.00
70304;BME280;57712;48.752;11.348;2023-01-19T02:29:09;96474.31;;;0.07;100.00
70304;BME280;57712;48.752;11.348;2023-01-19T02:31:37;96480.84;;;0.09;100.00
70304;BME280;57712;48.752;11.348;2023-01-19T02:34:07;96466.16;;;-0.01;100.00
70304;BME280;57712;48.752;11.348;2023-01-19T02:36:38;96477.75;;;0.04;100.00
70304;BME280;57712;48.752;11.348;2023-01-19T02:39:07;96485.81;;;0.00;100.00
70304;BME280;57712;48.752;11.348;2023-01-19T02:41:39;96476.59;;;0.05;100.00
70304;BME280;57712;48.752;11.348;2023-01-19T02:44:08;96479.59;;;-0.08;100.00
70304;BME280;57712;48.752;11.348;2023-01-19T02:46:35;96475.41;;;-0.02;100.00
70304;BME280;57712;48.752;11.348;2023-01-19T02:49:03;96480.38;;;-0.04;100.00
70304;BME280;57712;48.752;11.348;2023-01-19T02:51:29;96486.47;;;-0.14;100.00
70304;BME280;57712;48.752;11.348;2023-01-19T02:54:12;96483.53;;;0.06;100.00
70304;BME280;57712;48.752;11.348;2023-01-19T03:02:42;96482.66;;;-0.09;100.00
70304;BME280;57712;48.752;11.348;2023-01-19T03:05:47;96486.47;;;-0.14;100.00
70304;BME280;57712;48.752;11.348;2023-01-19T03:11:09;96496.47;;;-0.14;100.00
70304;BME280;57712;48.752;11.348;2023-01-19T03:13:53;96502.16;;;-0.23;100.00
70304;BME280;57712;48.752;11.348;2023-01-19T03:19:20;96499.47;;;-0.23;100.00
70304;BME280;57712;48.752;11.348;2023-01-19T03:21:51;96484.09;;;-0.22;100.00
70304;BME280;57712;48.752;11.348;2023-01-19T03:24:23;96495.22;;;-0.24;100.00
70304;BME280;57712;48.752;11.348;2023-01-19T03:26:59;96497.16;;;-0.21;100.00
70304;BME280;57712;48.752;11.348;2023-01-19T03:29:31;96497.91;;;-0.24;100.00
70304;BME280;57712;48.752;11.348;2023-01-19T03:32:02;96487.13;;;-0.31;100.00
70304;BME280;57712;48.752;11.348;2023-01-19T03:34:32;96490.94;;;-0.32;100.00
70304;BME280;57712;48.752;11.348;2023-01-19T03:37:02;96500.09;;;-0.40;100.00
70304;BME280;57712;48.752;11.348;2023-01-19T03:39:30;96505.75;;;-0.52;100.00
70304;BME280;57712;48.752;11.348;2023-01-19T03:42:09;96508.69;;;-0.65;100.00
70304;BME280;57712;48.752;11.348;2023-01-19T03:44:38;96504.88;;;-0.64;100.00
70304;BME280;57712;48.752;11.348;2023-01-19T03:47:07;96505.63;;;-0.67;100.00
70304;BME280;57712;48.752;11.348;2023-01-19T03:49:36;96499.09;;;-0.66;100.00
70304;BME280;57712;48.752;11.348;2023-01-19T03:52:03;96499.50;;;-0.64;100.00
70304;BME280;57712;48.752;11.348;2023-01-19T03:54:30;96500.16;;;-0.74;100.00
70304;BME280;57712;48.752;11.348;2023-01-19T03:56:57;96500.53;;;-0.75;100.00
70304;BME280;57712;48.752;11.348;2023-01-19T03:59:23;96510.59;;;-0.69;100.00
70304;BME280;57712;48.752;11.348;2023-01-19T04:01:50;96512.06;;;-0.75;100.00
70304;BME280;57712;48.752;11.348;2023-01-19T04:04:16;96503.50;;;-0.84;100.00
70304;BME280;57712;48.752;11.348;2023-01-19T04:06:43;96502.72;;;-0.88;100.00
70304;BME280;57712;48.752;11.348;2023-01-19T04:09:10;96494.22;;;-0.94;100.00
70304;BME280;57712;48.752;11.348;2023-01-19T04:11:36;96498.56;;;-0.82;100.00
70304;BME280;57712;48.752;11.348;2023-01-19T04:14:03;96504.97;;;-0.94;100.00
70304;BME280;57712;48.752;11.348;2023-01-19T04:16:29;96501.94;;;-0.89;100.00
70304;BME280;57712;48.752;11.348;2023-01-19T04:18:56;96498.78;;;-0.98;100.00
70304;BME280;57712;48.752;11.348;2023-01-19T04:21:22;96497.19;;;-1.02;100.00
70304;BME280;57712;48.752;11.348;2023-01-19T04:23:49;96488.00;;;-1.01;100.00
70304;BME280;57712;48.752;11.348;2023-01-19T04:26:16;96496.78;;;-1.04;100.00
70304;BME280;57712;48.752;11.348;2023-01-19T04:28:42;96505.19;;;-1.09;100.00
70304;BME280;57712;48.752;11.348;2023-01-19T04:31:09;96510.16;;;-1.11;100.00
70304;BME280;57712;48.752;11.348;2023-01-19T04:33:36;96506.31;;;-1.10;100.00
70304;BME280;57712;48.752;11.348;2023-01-19T04:36:02;96506.22;;;-1.18;100.00
70304;BME280;57712;48.752;11.348;2023-01-19T04:38:29;96507.72;;;-1.24;100.00
70304;BME280;57712;48.752;11.348;2023-01-19T04:40:55;96516.06;;;-1.29;100.00
70304;BME280;57712;48.752;11.348;2023-01-19T04:43:22;96516.03;;;-1.32;100.00
70304;BME280;57712;48.752;11.348;2023-01-19T04:45:50;96506.47;;;-1.30;100.00
70304;BME280;57712;48.752;11.348;2023-01-19T04:48:17;96507.63;;;-1.31;100.00
70304;BME280;57712;48.752;11.348;2023-01-19T04:50:44;96515.28;;;-1.33;100.00
70304;BME280;57712;48.752;11.348;2023-01-19T04:53:11;96523.63;;;-1.38;100.00
70304;BME280;57712;48.752;11.348;2023-01-19T04:55:39;96518.09;;;-1.52;100.00
70304;BME280;57712;48.752;11.348;2023-01-19T04:58:05;96516.47;;;-1.57;100.00
70304;BME280;57712;48.752;11.348;2023-01-19T05:00:32;96517.97;;;-1.59;100.00
70304;BME280;57712;48.752;11.348;2023-01-19T05:02:58;96520.22;;;-1.65;100.00
70304;BME280;57712;48.752;11.348;2023-01-19T05:05:27;96526.66;;;-1.69;100.00
70304;BME280;57712;48.752;11.348;2023-01-19T05:07:53;96523.22;;;-1.70;100.00
70304;BME280;57712;48.752;11.348;2023-01-19T05:10:20;96518.56;;;-1.73;100.00
70304;BME280;57712;48.752;11.348;2023-01-19T05:12:47;96515.75;;;-1.84;100.00
70304;BME280;57712;48.752;11.348;2023-01-19T05:15:13;96525.75;;;-1.81;100.00
70304;BME280;57712;48.752;11.348;2023-01-19T05:17:40;96518.44;;;-1.84;100.00
70304;BME280;57712;48.752;11.348;2023-01-19T05:20:09;96515.34;;;-1.86;100.00
70304;BME280;57712;48.752;11.348;2023-01-19T05:22:37;96509.91;;;-1.89;100.00
70304;BME280;57712;48.752;11.348;2023-01-19T05:25:08;96510.66;;;-1.89;100.00
70304;BME280;57712;48.752;11.348;2023-01-19T05:27:35;96512.22;;;-1.88;100.00
70304;BME280;57712;48.752;11.348;2023-01-19T05:30:04;96519.84;;;-1.90;100.00
70304;BME280;57712;48.752;11.348;2023-01-19T05:32:31;96519.78;;;-1.97;100.00
70304;BME280;57712;48.752;11.348;2023-01-19T05:34:58;96509.13;;;-1.90;100.00
70304;BME280;57712;48.752;11.348;2023-01-19T05:37:24;96511.81;;;-1.90;100.00
70304;BME280;57712;48.752;11.348;2023-01-19T05:39:51;96512.91;;;-1.94;100.00
70304;BME280;57712;48.752;11.348;2023-01-19T05:42:18;96506.75;;;-1.95;100.00
70304;BME280;57712;48.752;11.348;2023-01-19T05:44:45;96510.59;;;-1.96;100.00
70304;BME280;57712;48.752;11.348;2023-01-19T05:47:11;96502.94;;;-1.94;100.00
70304;BME280;57712;48.752;11.348;2023-01-19T05:49:38;96513.28;;;-1.96;100.00
70304;BME280;57712;48.752;11.348;2023-01-19T05:52:04;96515.84;;;-2.03;100.00
70304;BME280;57712;48.752;11.348;2023-01-19T05:54:31;96525.78;;;-2.04;100.00
70304;BME280;57712;48.752;11.348;2023-01-19T05:56:58;96525.03;;;-2.04;100.00
70304;BME280;57712;48.752;11.348;2023-01-19T05:59:24;96530.06;;;-1.99;100.00
70304;BME280;57712;48.752;11.348;2023-01-19T06:01:52;96519.69;;;-2.00;100.00
70304;BME280;57712;48.752;11.348;2023-01-19T06:04:19;96526.97;;;-2.01;100.00
70304;BME280;57712;48.752;11.348;2023-01-19T06:06:47;96537.19;;;-2.10;100.00
70304;BME280;57712;48.752;11.348;2023-01-19T06:09:13;96533.38;;;-2.09;100.00
70304;BME280;57712;48.752;11.348;2023-01-19T06:11:39;96540.22;;;-2.12;100.00
70304;BME280;57712;48.752;11.348;2023-01-19T06:14:08;96541.84;;;-2.07;100.00
70304;BME280;57712;48.752;11.348;2023-01-19T06:16:35;96543.31;;;-2.10;100.00
70304;BME280;57712;48.752;11.348;2023-01-19T06:19:02;96542.13;;;-2.12;100.00
70304;BME280;57712;48.752;11.348;2023-01-19T06:21:28;96544.09;;;-2.09;100.00
70304;BME280;57712;48.752;11.348;2023-01-19T06:23:55;96546.38;;;-2.11;100.00
70304;BME280;57712;48.752;11.348;2023-01-19T06:26:21;96554.00;;;-2.13;100.00
70304;BME280;57712;48.752;11.348;2023-01-19T06:28:50;96552.88;;;-2.12;100.00
70304;BME280;57712;48.752;11.348;2023-01-19T06:31:17;96551.03;;;-2.08;100.00
70304;BME280;57712;48.752;11.348;2023-01-19T06:33:44;96551.19;;;-2.20;100.00
70304;BME280;57712;48.752;11.348;2023-01-19T06:36:12;96555.69;;;-2.28;100.00
70304;BME280;57712;48.752;11.348;2023-01-19T06:38:38;96562.84;;;-2.36;100.00
70304;BME280;57712;48.752;11.348;2023-01-19T06:41:05;96564.56;;;-2.24;100.00
70304;BME280;57712;48.752;11.348;2023-01-19T06:43:32;96577.91;;;-2.27;100.00
70304;BME280;57712;48.752;11.348;2023-01-19T06:45:58;96583.88;;;-2.38;100.00
70304;BME280;57712;48.752;11.348;2023-01-19T06:48:29;96588.94;;;-2.33;100.00
70304;BME280;57712;48.752;11.348;2023-01-19T06:50:55;96594.28;;;-2.33;100.00
70304;BME280;57712;48.752;11.348;2023-01-19T06:53:24;96597.81;;;-2.28;100.00
70304;BME280;57712;48.752;11.348;2023-01-19T06:56:00;96602.56;;;-2.41;100.00
70304;BME280;57712;48.752;11.348;2023-01-19T06:58:28;96609.59;;;-2.33;100.00
70304;BME280;57712;48.752;11.348;2023-01-19T07:01:02;96612.41;;;-2.49;100.00
70304;BME280;57712;48.752;11.348;2023-01-19T07:03:30;96608.69;;;-2.41;100.00
70304;BME280;57712;48.752;11.348;2023-01-19T07:05:57;96612.78;;;-2.27;100.00
70304;BME280;57712;48.752;11.348;2023-01-19T07:08:28;96612.25;;;-2.14;100.00
70304;BME280;57712;48.752;11.348;2023-01-19T07:11:13;96628.47;;;-2.07;100.00
70304;BME280;57712;48.752;11.348;2023-01-19T07:13:55;96621.44;;;-2.15;100.00
70304;BME280;57712;48.752;11.348;2023-01-19T07:16:22;96619.09;;;-2.16;100.00
70304;BME280;57712;48.752;11.348;2023-01-19T07:18:48;96623.34;;;-2.15;100.00
70304;BME280;57712;48.752;11.348;2023-01-19T07:21:16;96619.81;;;-2.19;100.00
70304;BME280;57712;48.752;11.348;2023-01-19T07:23:42;96624.75;;;-2.21;100.00
70304;BME280;57712;48.752;11.348;2023-01-19T07:26:09;96635.00;;;-2.27;100.00
70304;BME280;57712;48.752;11.348;2023-01-19T07:28:37;96635.88;;;-2.19;100.00
70304;BME280;57712;48.752;11.348;2023-01-19T07:31:04;96638.06;;;-2.28;100.00
70304;BME280;57712;48.752;11.348;2023-01-19T07:33:30;96640.56;;;-2.16;100.00
70304;BME280;57712;48.752;11.348;2023-01-19T07:35:57;96641.84;;;-2.29;100.00
70304;BME280;57712;48.752;11.348;2023-01-19T07:38:23;96640.72;;;-2.28;100.00
70304;BME280;57712;48.752;11.348;2023-01-19T07:40:50;96637.34;;;-2.25;100.00
70304;BME280;57712;48.752;11.348;2023-01-19T07:43:17;96647.44;;;-2.19;100.00
70304;BME280;57712;48.752;11.348;2023-01-19T07:45:43;96649.94;;;-2.07;100.00
70304;BME280;57712;48.752;11.348;2023-01-19T07:48:10;96645.06;;;-2.20;100.00
70304;BME280;57712;48.752;11.348;2023-01-19T07:50:37;96649.03;;;-2.14;100.00
70304;BME280;57712;48.752;11.348;2023-01-19T07:53:07;96658.06;;;-2.22;100.00
70304;BME280;57712;48.752;11.348;2023-01-19T07:55:34;96664.41;;;-2.11;100.00
70304;BME280;57712;48.752;11.348;2023-01-19T07:58:00;96663.72;;;-2.08;100.00
70304;BME280;57712;48.752;11.348;2023-01-19T08:00:30;96671.81;;;-1.82;100.00
70304;BME280;57712;48.752;11.348;2023-01-19T08:03:00;96671.81;;;-1.82;100.00
70304;BME280;57712;48.752;11.348;2023-01-19T08:05:28;96674.22;;;-1.77;100.00
70304;BME280;57712;48.752;11.348;2023-01-19T08:07:55;96669.66;;;-1.72;100.00
70304;BME280;57712;48.752;11.348;2023-01-19T08:10:26;96669.78;;;-1.65;100.00
70304;BME280;57712;48.752;11.348;2023-01-19T08:12:54;96680.69;;;-1.78;100.00
70304;BME280;57712;48.752;11.348;2023-01-19T08:15:21;96686.66;;;-1.65;100.00
70304;BME280;57712;48.752;11.348;2023-01-19T08:17:55;96688.69;;;-1.81;100.00
70304;BME280;57712;48.752;11.348;2023-01-19T08:20:21;96701.41;;;-1.55;100.00
70304;BME280;57712;48.752;11.348;2023-01-19T08:22:48;96695.91;;;-1.62;100.00
70304;BME280;57712;48.752;11.348;2023-01-19T08:25:15;96694.97;;;-1.73;100.00
70304;BME280;57712;48.752;11.348;2023-01-19T08:27:42;96691.81;;;-1.56;100.00
70304;BME280;57712;48.752;11.348;2023-01-19T08:30:09;96691.25;;;-1.65;100.00
70304;BME280;57712;48.752;11.348;2023-01-19T08:32:35;96705.09;;;-1.63;100.00
70304;BME280;57712;48.752;11.348;2023-01-19T08:35:02;96693.34;;;-1.55;100.00
70304;BME280;57712;48.752;11.348;2023-01-19T08:37:29;96695.31;;;-1.52;100.00
70304;BME280;57712;48.752;11.348;2023-01-19T08:39:57;96697.50;;;-1.35;100.00
70304;BME280;57712;48.752;11.348;2023-01-19T08:42:23;96691.00;;;-1.57;100.00
70304;BME280;57712;48.752;11.348;2023-01-19T08:44:50;96699.81;;;-1.33;100.00
70304;BME280;57712;48.752;11.348;2023-01-19T08:47:23;96706.78;;;-1.55;100.00
70304;BME280;57712;48.752;11.348;2023-01-19T08:49:50;96701.50;;;-1.48;100.00
70304;BME280;57712;48.752;11.348;2023-01-19T08:52:16;96720.19;;;-1.32;100.00
70304;BME280;57712;48.752;11.348;2023-01-19T08:54:43;96716.41;;;-1.28;100.00
70304;BME280;57712;48.752;11.348;2023-01-19T08:57:09;96711.81;;;-1.27;100.00
70304;BME280;57712;48.752;11.348;2023-01-19T08:59:35;96709.34;;;-1.36;100.00
70304;BME280;57712;48.752;11.348;2023-01-19T09:02:03;96709.34;;;-1.36;100.00
70304;BME280;57712;48.752;11.348;2023-01-19T09:04:30;96708.25;;;-1.58;100.00
70304;BME280;57712;48.752;11.348;2023-01-19T09:06:58;96709.69;;;-1.41;100.00
70304;BME280;57712;48.752;11.348;2023-01-19T09:09:24;96717.69;;;-1.44;100.00
70304;BME280;57712;48.752;11.348;2023-01-19T09:11:53;96710.81;;;-1.42;100.00
70304;BME280;57712;48.752;11.348;2023-01-19T09:14:19;96715.09;;;-1.37;100.00
70304;BME280;57712;48.752;11.348;2023-01-19T09:16:46;96721.59;;;-1.38;100.00
70304;BME280;57712;48.752;11.348;2023-01-19T09:19:12;96718.78;;;-1.23;100.00
70304;BME280;57712;48.752;11.348;2023-01-19T09:21:39;96710.16;;;-1.09;100.00
70304;BME280;57712;48.752;11.348;2023-01-19T09:24:06;96719.03;;;-1.05;100.00
70304;BME280;57712;48.752;11.348;2023-01-19T09:26:34;96715.44;;;-0.90;100.00
70304;BME280;57712;48.752;11.348;2023-01-19T09:29:01;96717.94;;;-0.74;100.00
70304;BME280;57712;48.752;11.348;2023-01-19T09:31:28;96722.59;;;-0.71;100.00
70304;BME280;57712;48.752;11.348;2023-01-19T09:33:55;96723.75;;;-0.72;100.00
70304;BME280;57712;48.752;11.348;2023-01-19T09:36:22;96733.25;;;-0.78;100.00
70304;BME280;57712;48.752;11.348;2023-01-19T09:38:48;96724.69;;;-0.57;100.00
70304;BME280;57712;48.752;11.348;2023-01-19T09:41:19;96728.91;;;-0.60;100.00
70304;BME280;57712;48.752;11.348;2023-01-19T09:43:56;96719.44;;;-0.46;100.00
70304;BME280;57712;48.752;11.348;2023-01-19T09:46:31;96718.56;;;-0.84;100.00
70304;BME280;57712;48.752;11.348;2023-01-19T09:49:02;96723.03;;;-0.95;100.00
70304;BME280;57712;48.752;11.348;2023-01-19T09:51:39;96710.00;;;-0.33;100.00
70304;BME280;57712;48.752;11.348;2023-01-19T09:54:34;96714.53;;;-0.41;100.00
70304;BME280;57712;48.752;11.348;2023-01-19T09:57:02;96710.50;;;-0.24;100.00
70304;BME280;57712;48.752;11.348;2023-01-19T09:59:31;96715.63;;;-0.12;100.00
70304;BME280;57712;48.752;11.348;2023-01-19T10:10:45;96713.94;;;-0.23;100.00
70304;BME280;57712;48.752;11.348;2023-01-19T10:15:53;96709.06;;;0.23;100.00
70304;BME280;57712;48.752;11.348;2023-01-19T10:18:26;96717.25;;;-0.04;100.00
70304;BME280;57712;48.752;11.348;2023-01-19T10:21:13;96718.88;;;0.05;100.00
70304;BME280;57712;48.752;11.348;2023-01-19T10:23:43;96708.41;;;0.37;100.00
70304;BME280;57712;48.752;11.348;2023-01-19T10:26:17;96710.78;;;0.42;100.00
70304;BME280;57712;48.752;11.348;2023-01-19T10:28:48;96710.81;;;0.45;100.00
70304;BME280;57712;48.752;11.348;2023-01-19T10:31:18;96705.34;;;0.38;100.00
70304;BME280;57712;48.752;11.348;2023-01-19T10:33:51;96702.84;;;0.19;100.00
70304;BME280;57712;48.752;11.348;2023-01-19T10:38:52;96704.47;;;0.27;100.00
70304;BME280;57712;48.752;11.348;2023-01-19T10:41:43;96701.47;;;0.32;100.00
70304;BME280;57712;48.752;11.348;2023-01-19T10:44:10;96704.50;;;0.31;100.00
70304;BME280;57712;48.752;11.348;2023-01-19T10:46:42;96699.63;;;0.43;100.00
70304;BME280;57712;48.752;11.348;2023-01-19T10:51:50;96691.88;;;0.86;100.00
70304;BME280;57712;48.752;11.348;2023-01-19T10:54:16;96690.28;;;0.78;100.00
70304;BME280;57712;48.752;11.348;2023-01-19T10:56:50;96689.28;;;1.00;100.00
70304;BME280;57712;48.752;11.348;2023-01-19T10:59:36;96690.66;;;0.80;100.00
70304;BME280;57712;48.752;11.348;2023-01-19T11:04:35;96681.34;;;1.25;100.00
70304;BME280;57712;48.752;11.348;2023-01-19T11:09:39;96673.31;;;1.39;100.00
70304;BME280;57712;48.752;11.348;2023-01-19T11:12:14;96679.13;;;1.52;100.00
70304;BME280;57712;48.752;11.348;2023-01-19T11:14:42;96678.97;;;1.17;100.00
70304;BME280;57712;48.752;11.348;2023-01-19T11:17:18;96677.56;;;1.44;100.00
70304;BME280;57712;48.752;11.348;2023-01-19T11:19:57;96678.81;;;1.71;100.00
70304;BME280;57712;48.752;11.348;2023-01-19T11:22:27;96678.47;;;3.33;100.00
70304;BME280;57712;48.752;11.348;2023-01-19T11:24:59;96683.22;;;2.86;100.00
70304;BME280;57712;48.752;11.348;2023-01-19T11:27:29;96680.59;;;3.88;100.00
70304;BME280;57712;48.752;11.348;2023-01-19T11:30:19;96681.13;;;3.55;100.00
70304;BME280;57712;48.752;11.348;2023-01-19T11:32:46;96681.53;;;4.30;100.00
70304;BME280;57712;48.752;11.348;2023-01-19T11:35:38;96683.94;;;3.19;100.00
70304;BME280;57712;48.752;11.348;2023-01-19T11:38:23;96670.00;;;4.67;100.00
70304;BME280;57712;48.752;11.348;2023-01-19T11:40:57;96673.47;;;4.19;100.00
70304;BME280;57712;48.752;11.348;2023-01-19T11:43:27;96676.94;;;4.16;100.00
70304;BME280;57712;48.752;11.348;2023-01-19T11:46:14;96676.50;;;4.25;100.00
70304;BME280;57712;48.752;11.348;2023-01-19T11:49:01;96668.41;;;3.41;100.00
70304;BME280;57712;48.752;11.348;2023-01-19T11:51:36;96679.69;;;3.18;100.00
70304;BME280;57712;48.752;11.348;2023-01-19T11:54:16;96673.69;;;3.73;100.00
70304;BME280;57712;48.752;11.348;2023-01-19T11:56:46;96671.84;;;4.29;100.00
70304;BME280;57712;48.752;11.348;2023-01-19T11:59:14;96661.63;;;4.47;100.00
70304;BME280;57712;48.752;11.348;2023-01-19T12:01:46;96660.50;;;4.93;100.00
70304;BME280;57712;48.752;11.348;2023-01-19T12:04:23;96664.63;;;4.04;100.00
70304;BME280;57712;48.752;11.348;2023-01-19T12:06:54;96654.69;;;4.91;100.00
70304;BME280;57712;48.752;11.348;2023-01-19T12:09:44;96647.25;;;4.54;100.00
70304;BME280;57712;48.752;11.348;2023-01-19T12:12:37;96648.59;;;5.17;100.00
70304;BME280;57712;48.752;11.348;2023-01-19T12:15:09;96652.19;;;4.66;97.83
70304;BME280;57712;48.752;11.348;2023-01-19T12:17:47;96648.66;;;5.10;100.00
70304;BME280;57712;48.752;11.348;2023-01-19T12:20:42;96654.19;;;4.07;100.00
70304;BME280;57712;48.752;11.348;2023-01-19T12:28:23;96655.31;;;3.22;100.00
70304;BME280;57712;48.752;11.348;2023-01-19T12:30:52;96646.00;;;3.33;100.00
70304;BME280;57712;48.752;11.348;2023-01-19T12:40:49;96648.03;;;2.05;100.00
70304;BME280;57712;48.752;11.348;2023-01-19T12:43:30;96646.13;;;2.05;100.00
70304;BME280;57712;48.752;11.348;2023-01-19T12:45:57;96643.84;;;2.43;100.00
70304;BME280;57712;48.752;11.348;2023-01-19T12:48:24;96643.81;;;2.36;100.00
70304;BME280;57712;48.752;11.348;2023-01-19T12:50:52;96649.97;;;2.18;100.00
70304;BME280;57712;48.752;11.348;2023-01-19T12:53:20;96641.88;;;2.29;100.00
70304;BME280;57712;48.752;11.348;2023-01-19T12:55:57;96644.59;;;2.36;100.00
70304;BME280;57712;48.752;11.348;2023-01-19T12:58:25;96645.34;;;2.08;100.00
70304;BME280;57712;48.752;11.348;2023-01-19T13:01:14;96642.66;;;2.37;100.00
70304;BME280;57712;48.752;11.348;2023-01-19T13:03:58;96647.63;;;1.95;100.00
70304;BME280;57712;48.752;11.348;2023-01-19T13:09:30;96639.94;;;2.01;100.00
70304;BME280;57712;48.752;11.348;2023-01-19T13:14:42;96646.88;;;1.95;100.00
70304;BME280;57712;48.752;11.348;2023-01-19T13:17:33;96645.38;;;2.29;100.00
70304;BME280;57712;48.752;11.348;2023-01-19T13:20:17;96646.09;;;1.98;100.00
70304;BME280;57712;48.752;11.348;2023-01-19T13:22:49;96648.84;;;2.26;100.00
70304;BME280;57712;48.752;11.348;2023-01-19T13:25:30;96641.50;;;2.09;100.00
70304;BME280;57712;48.752;11.348;2023-01-19T13:27:59;96642.63;;;1.94;100.00
70304;BME280;57712;48.752;11.348;2023-01-19T13:30:28;96649.09;;;1.57;100.00
70304;BME280;57712;48.752;11.348;2023-01-19T13:33:11;96648.00;;;1.80;100.00
70304;BME280;57712;48.752;11.348;2023-01-19T13:35:48;96649.50;;;1.66;100.00
70304;BME280;57712;48.752;11.348;2023-01-19T13:38:16;96646.09;;;1.91;100.00
70304;BME280;57712;48.752;11.348;2023-01-19T13:40:43;96657.25;;;1.86;100.00
70304;BME280;57712;48.752;11.348;2023-01-19T13:43:17;96660.69;;;1.68;100.00
70304;BME280;57712;48.752;11.348;2023-01-19T13:45:48;96659.91;;;1.61;100.00
70304;BME280;57712;48.752;11.348;2023-01-19T13:48:20;96650.59;;;1.48;100.00
70304;BME280;57712;48.752;11.348;2023-01-19T13:53:23;96652.84;;;1.35;100.00
70304;BME280;57712;48.752;11.348;2023-01-19T13:56:08;96652.91;;;1.49;100.00
70304;BME280;57712;48.752;11.348;2023-01-19T13:58:35;96654.53;;;1.68;100.00
70304;BME280;57712;48.752;11.348;2023-01-19T14:01:02;96653.69;;;1.53;100.00